Time,TemperatureF,DewpointF,PressureIn,WindDirection,WindDirectionDegrees,WindSpeedMPH,WindSpeedGustMPH,Humidity,HourlyPrecipIn,Conditions,Clouds,dailyrainin,SoftwareType,DateUTC
2013-02-17 00:01:00,44.0,41.0,30.02,SW,232,0.0,0.0,88,0.00,,,0.00,,2013-02-17 08:01:00,
2013-02-17 00:11:00,44.0,41.0,30.02,SW,232,0.0,0.0,88,0.00,,,0.00,,2013-02-17 08:11:00,
2013-02-17 00:21:00,43.0,40.0,30.02,SW,232,0.0,0.0,88,0.00,,,0.00,,2013-02-17 08:21:00,
2013-02-17 00:31:00,43.0,40.0,30.01,SW,232,0.0,0.0,90,0.00,,,0.00,,2013-02-17 08:31:00,
2013-02-17 00:41:00,43.0,40.0,30.01,SW,232,0.0,0.0,90,0.00,,,0.00,,2013-02-17 08:41:00,
2013-02-17 00:52:00,43.0,41.0,30.02,SW,232,0.0,0.0,91,0.00,,,0.00,,2013-02-17 08:52:00,
2013-02-17 01:01:00,43.0,41.0,30.02,SW,232,0.0,0.0,91,0.00,,,0.00,,2013-02-17 09:01:00,
2013-02-17 01:11:00,43.0,41.0,30.02,SW,232,0.0,0.0,91,0.00,,,0.00,,2013-02-17 09:11:00,
2013-02-17 01:21:00,42.0,40.0,30.02,SW,232,0.0,0.0,91,0.00,,,0.00,,2013-02-17 09:21:00,
2013-02-17 01:31:00,42.0,40.0,30.01,SW,232,0.0,0.0,92,0.00,,,0.00,,2013-02-17 09:31:00,
2013-02-17 01:41:00,42.0,40.0,30.01,SW,232,0.0,0.0,92,0.00,,,0.00,,2013-02-17 09:41:00,
2013-02-17 01:51:00,42.0,40.0,30.01,SW,232,0.0,0.0,92,0.00,,,0.00,,2013-02-17 09:51:00,
2013-02-17 02:01:00,42.0,40.0,30.02,SW,232,0.0,0.0,93,0.00,,,0.00,,2013-02-17 10:01:00,
2013-02-17 02:11:00,42.0,40.0,30.02,SW,232,0.0,0.0,93,0.00,,,0.00,,2013-02-17 10:11:00,
2013-02-17 02:21:00,41.0,39.0,30.02,SW,232,0.0,0.0,92,0.00,,,0.00,,2013-02-17 10:21:00,
2013-02-17 02:31:00,40.0,38.0,30.01,SW,232,0.0,0.0,92,0.00,,,0.00,,2013-02-17 10:31:00,
2013-02-17 02:41:00,40.0,38.0,30.01,SW,232,0.0,0.0,92,0.00,,,0.00,,2013-02-17 10:41:00,
2013-02-17 02:51:00,40.0,38.0,30.01,SW,232,0.0,0.0,92,0.00,,,0.00,,2013-02-17 10:51:00,
2013-02-17 03:01:00,39.0,37.0,30.00,SW,232,0.0,0.0,92,0.00,,,0.00,,2013-02-17 11:01:00,
2013-02-17 03:11:00,39.0,37.0,30.00,SW,232,0.0,0.0,92,0.00,,,0.00,,2013-02-17 11:11:00,
2013-02-17 03:21:00,39.0,37.0,30.00,SW,232,0.0,0.0,92,0.00,,,0.00,,2013-02-17 11:21:00,
2013-02-17 03:32:00,37.0,35.0,29.99,SW,232,0.0,0.0,93,0.00,,,0.00,,2013-02-17 11:32:00,
2013-02-17 03:41:00,37.0,35.0,29.99,SW,232,0.0,0.0,93,0.00,,,0.00,,2013-02-17 11:41:00,
2013-02-17 03:52:00,37.0,36.0,29.98,SW,232,0.0,0.0,95,0.00,,,0.00,,2013-02-17 11:52:00,
2013-02-17 04:02:00,38.0,37.0,29.99,SW,232,0.0,0.0,96,0.00,,,0.00,,2013-02-17 12:02:00,
2013-02-17 04:11:00,38.0,37.0,29.99,SW,232,0.0,0.0,96,0.00,,,0.00,,2013-02-17 12:11:00,
2013-02-17 04:22:00,38.0,37.0,29.98,SW,232,0.0,0.0,95,0.00,,,0.00,,2013-02-17 12:22:00,
2013-02-17 04:31:00,38.0,37.0,29.99,SW,232,0.0,0.0,95,0.00,,,0.00,,2013-02-17 12:31:00,
2013-02-17 04:42:00,38.0,37.0,29.99,SW,232,0.0,0.0,95,0.00,,,0.00,,2013-02-17 12:42:00,
2013-02-17 04:52:00,37.0,36.0,29.99,SW,232,0.0,0.0,95,0.00,,,0.00,,2013-02-17 12:52:00,
2013-02-17 05:01:00,37.0,36.0,29.99,SW,232,0.0,0.0,95,0.00,,,0.00,,2013-02-17 13:01:00,
2013-02-17 05:11:00,37.0,36.0,29.99,SW,232,0.0,0.0,95,0.00,,,0.00,,2013-02-17 13:11:00,
2013-02-17 05:21:00,37.0,36.0,29.99,SW,232,0.0,0.0,95,0.00,,,0.00,,2013-02-17 13:21:00,
2013-02-17 05:32:00,37.0,36.0,29.99,SW,232,0.0,0.0,95,0.00,,,0.00,,2013-02-17 13:32:00,
2013-02-17 05:42:00,37.0,36.0,29.99,SW,232,0.0,0.0,95,0.00,,,0.00,,2013-02-17 13:42:00,
2013-02-17 05:52:00,37.0,36.0,29.99,SW,232,0.0,0.0,95,0.00,,,0.00,,2013-02-17 13:52:00,
2013-02-17 06:01:00,36.0,35.0,29.99,SW,232,0.0,1.0,95,0.00,,,0.00,,2013-02-17 14:01:00,
2013-02-17 06:11:00,36.0,35.0,29.99,SW,232,0.0,1.0,95,0.00,,,0.00,,2013-02-17 14:11:00,
2013-02-17 06:21:00,36.0,35.0,29.99,SW,232,0.0,1.0,96,0.00,,,0.00,,2013-02-17 14:21:00,
2013-02-17 06:32:00,36.0,35.0,30.00,SW,232,0.0,1.0,96,0.00,,,0.00,,2013-02-17 14:32:00,
2013-02-17 06:42:00,36.0,35.0,30.00,SW,232,0.0,1.0,96,0.00,,,0.00,,2013-02-17 14:42:00,
2013-02-17 06:52:00,37.0,36.0,30.00,SW,232,0.0,1.0,97,0.00,,,0.00,,2013-02-17 14:52:00,
2013-02-17 07:01:00,37.0,36.0,30.00,SW,232,0.0,0.0,95,0.00,,,0.00,,2013-02-17 15:01:00,
2013-02-17 07:11:00,37.0,36.0,30.00,SW,232,0.0,0.0,95,0.00,,,0.00,,2013-02-17 15:11:00,
2013-02-17 07:21:00,36.0,35.0,30.01,SW,232,0.0,0.0,95,0.00,,,0.00,,2013-02-17 15:21:00,
2013-02-17 07:31:00,36.0,35.0,30.01,SW,232,0.0,0.0,96,0.00,,,0.00,,2013-02-17 15:31:00,
2013-02-17 07:41:00,36.0,35.0,30.01,SW,232,0.0,0.0,96,0.00,,,0.00,,2013-02-17 15:41:00,
2013-02-17 07:51:00,37.0,36.0,30.01,SW,232,0.0,0.0,97,0.00,,,0.00,,2013-02-17 15:51:00,
2013-02-17 08:01:00,38.0,37.0,30.01,SW,232,0.0,0.0,97,0.00,,,0.00,,2013-02-17 16:01:00,
2013-02-17 08:11:00,38.0,37.0,30.01,SW,232,0.0,0.0,97,0.00,,,0.00,,2013-02-17 16:11:00,
2013-02-17 08:21:00,39.0,38.0,30.02,SW,232,0.0,0.0,97,0.00,,,0.00,,2013-02-17 16:21:00,
2013-02-17 08:31:00,41.0,40.0,30.01,SW,232,0.0,0.0,97,0.00,,,0.00,,2013-02-17 16:31:00,
2013-02-17 08:41:00,41.0,40.0,30.01,SW,232,0.0,0.0,97,0.00,,,0.00,,2013-02-17 16:41:00,
2013-02-17 08:51:00,43.0,42.0,30.01,SW,232,0.0,0.0,97,0.00,,,0.00,,2013-02-17 16:51:00,
2013-02-17 09:02:00,43.0,42.0,30.01,SW,232,0.0,0.0,97,0.00,,,0.00,,2013-02-17 17:02:00,
2013-02-17 09:11:00,43.0,42.0,30.01,SW,232,0.0,0.0,97,0.00,,,0.00,,2013-02-17 17:11:00,
2013-02-17 09:21:00,46.0,43.0,30.02,SW,232,0.0,1.0,89,0.00,,,0.00,,2013-02-17 17:21:00,
2013-02-17 09:32:00,48.0,43.0,30.03,SW,232,0.0,1.0,84,0.00,,,0.00,,2013-02-17 17:32:00,
2013-02-17 09:41:00,48.0,43.0,30.03,SW,232,0.0,1.0,84,0.00,,,0.00,,2013-02-17 17:41:00,
2013-02-17 09:52:00,50.0,44.0,30.02,SW,232,0.0,2.0,81,0.00,,,0.00,,2013-02-17 17:52:00,
2013-02-17 10:01:00,52.0,43.0,30.02,SW,233,0.0,1.0,72,0.00,,,0.00,,2013-02-17 18:01:00,
2013-02-17 10:11:00,52.0,43.0,30.02,SW,233,0.0,1.0,72,0.00,,,0.00,,2013-02-17 18:11:00,
2013-02-17 10:21:00,54.0,44.0,30.03,North,5,0.0,2.0,70,0.00,,,0.00,,2013-02-17 18:21:00,
2013-02-17 10:33:00,55.0,45.0,30.03,NNW,346,0.0,4.0,68,0.00,,,0.00,,2013-02-17 18:33:00,
2013-02-17 10:41:00,55.0,45.0,30.03,NNW,346,0.0,4.0,68,0.00,,,0.00,,2013-02-17 18:41:00,
2013-02-17 10:52:00,56.0,44.0,30.03,NNW,338,1.0,5.0,65,0.00,,,0.00,,2013-02-17 18:52:00,
2013-02-17 11:01:00,56.0,44.0,30.03,NE,34,0.0,4.0,63,0.00,,,0.00,,2013-02-17 19:01:00,
2013-02-17 11:11:00,56.0,44.0,30.03,NE,34,0.0,4.0,63,0.00,,,0.00,,2013-02-17 19:11:00,
2013-02-17 11:21:00,57.0,45.0,30.02,North,360,0.0,4.0,64,0.00,,,0.00,,2013-02-17 19:21:00,
2013-02-17 11:31:00,58.0,45.0,30.02,North,360,0.0,3.0,61,0.00,,,0.00,,2013-02-17 19:31:00,
2013-02-17 11:41:00,58.0,45.0,30.02,North,360,0.0,3.0,61,0.00,,,0.00,,2013-02-17 19:41:00,
2013-02-17 11:52:00,60.0,46.0,30.01,NW,326,0.0,2.0,59,0.00,,,0.00,,2013-02-17 19:52:00,
2013-02-17 12:01:00,60.0,44.0,30.02,NW,325,1.0,4.0,56,0.00,,,0.00,,2013-02-17 20:01:00,
2013-02-17 12:11:00,60.0,44.0,30.02,NW,325,1.0,4.0,56,0.00,,,0.00,,2013-02-17 20:11:00,
2013-02-17 12:21:00,61.0,46.0,30.01,NNW,333,0.0,4.0,58,0.00,,,0.00,,2013-02-17 20:21:00,
2013-02-17 12:31:00,61.0,45.0,30.00,NNW,347,0.0,5.0,55,0.00,,,0.00,,2013-02-17 20:31:00,
2013-02-17 12:42:00,61.0,45.0,30.00,NNW,347,0.0,5.0,55,0.00,,,0.00,,2013-02-17 20:42:00,
2013-02-17 12:52:00,61.0,45.0,30.00,NNW,347,0.0,5.0,55,0.00,,,0.00,,2013-02-17 20:52:00,
2013-02-17 13:01:00,62.0,44.0,29.99,NNW,334,1.0,3.0,52,0.00,,,0.00,,2013-02-17 21:01:00,
2013-02-17 13:11:00,62.0,44.0,29.99,NNW,334,1.0,3.0,52,0.00,,,0.00,,2013-02-17 21:11:00,
2013-02-17 13:21:00,63.0,44.0,29.98,NNW,336,1.0,4.0,50,0.00,,,0.00,,2013-02-17 21:21:00,
2013-02-17 13:31:00,63.0,44.0,29.98,North,5,1.0,5.0,49,0.00,,,0.00,,2013-02-17 21:31:00,
2013-02-17 13:41:00,63.0,44.0,29.98,North,5,1.0,5.0,49,0.00,,,0.00,,2013-02-17 21:41:00,
2013-02-17 13:52:00,64.0,44.0,29.97,NNW,332,1.0,5.0,48,0.00,,,0.00,,2013-02-17 21:52:00,
2013-02-17 14:01:00,64.0,43.0,29.97,North,355,2.0,4.0,47,0.00,,,0.00,,2013-02-17 22:01:00,
2013-02-17 14:11:00,64.0,43.0,29.97,North,355,2.0,4.0,47,0.00,,,0.00,,2013-02-17 22:11:00,
2013-02-17 14:21:00,65.0,44.0,29.96,NNW,341,0.0,4.0,46,0.00,,,0.00,,2013-02-17 22:21:00,
2013-02-17 14:32:00,66.0,46.0,29.96,NNW,336,0.0,4.0,48,0.00,,,0.00,,2013-02-17 22:32:00,
2013-02-17 14:41:00,66.0,46.0,29.96,NNW,336,0.0,4.0,48,0.00,,,0.00,,2013-02-17 22:41:00,
2013-02-17 14:52:00,66.0,43.0,29.96,North,5,0.0,5.0,44,0.00,,,0.00,,2013-02-17 22:52:00,
2013-02-17 15:01:00,66.0,43.0,29.96,NNW,333,0.0,3.0,44,0.00,,,0.00,,2013-02-17 23:01:00,
2013-02-17 15:11:00,66.0,43.0,29.96,NNW,333,0.0,3.0,44,0.00,,,0.00,,2013-02-17 23:11:00,
2013-02-17 15:21:00,66.0,44.0,29.95,NW,307,2.0,5.0,45,0.00,,,0.00,,2013-02-17 23:21:00,
2013-02-17 15:31:00,67.0,43.0,29.95,North,5,0.0,4.0,41,0.00,,,0.00,,2013-02-17 23:31:00,
2013-02-17 15:41:00,67.0,43.0,29.95,North,5,0.0,4.0,41,0.00,,,0.00,,2013-02-17 23:41:00,
2013-02-17 15:52:00,67.0,42.0,29.95,North,350,0.0,4.0,40,0.00,,,0.00,,2013-02-17 23:52:00,
2013-02-17 16:01:00,67.0,42.0,29.95,NNW,343,2.0,4.0,40,0.00,,,0.00,,2013-02-18 00:01:00,
2013-02-17 16:11:00,67.0,42.0,29.95,NNW,343,2.0,4.0,40,0.00,,,0.00,,2013-02-18 00:11:00,
2013-02-17 16:22:00,67.0,41.0,29.94,NNW,344,2.0,5.0,39,0.00,,,0.00,,2013-02-18 00:22:00,
2013-02-17 16:31:00,67.0,43.0,29.94,NNW,329,1.0,3.0,41,0.00,,,0.00,,2013-02-18 00:31:00,
2013-02-17 16:41:00,67.0,43.0,29.94,NNW,329,1.0,3.0,41,0.00,,,0.00,,2013-02-18 00:41:00,
2013-02-17 16:52:00,67.0,41.0,29.94,NNW,344,0.0,2.0,39,0.00,,,0.00,,2013-02-18 00:52:00,
2013-02-17 17:01:00,66.0,42.0,29.94,NNW,348,0.0,3.0,42,0.00,,,0.00,,2013-02-18 01:01:00,
2013-02-17 17:11:00,66.0,42.0,29.94,NNW,348,0.0,3.0,42,0.00,,,0.00,,2013-02-18 01:11:00,
2013-02-17 17:21:00,64.0,41.0,29.93,North,9,0.0,1.0,43,0.00,,,0.00,,2013-02-18 01:21:00,
2013-02-17 17:31:00,64.0,41.0,29.93,North,10,0.0,1.0,43,0.00,,,0.00,,2013-02-18 01:31:00,
2013-02-17 17:41:00,64.0,41.0,29.93,North,10,0.0,1.0,43,0.00,,,0.00,,2013-02-18 01:41:00,
2013-02-17 17:51:00,62.0,40.0,29.93,North,10,0.0,1.0,44,0.00,,,0.00,,2013-02-18 01:51:00,
2013-02-17 18:01:00,61.0,40.0,29.93,North,10,0.0,0.0,45,0.00,,,0.00,,2013-02-18 02:01:00,
2013-02-17 18:11:00,61.0,40.0,29.93,North,10,0.0,0.0,45,0.00,,,0.00,,2013-02-18 02:11:00,
2013-02-17 18:21:00,59.0,40.0,29.93,North,10,0.0,0.0,50,0.00,,,0.00,,2013-02-18 02:21:00,
2013-02-17 18:32:00,58.0,41.0,29.93,North,10,0.0,0.0,54,0.00,,,0.00,,2013-02-18 02:32:00,
2013-02-17 18:41:00,58.0,41.0,29.93,North,10,0.0,0.0,54,0.00,,,0.00,,2013-02-18 02:41:00,
2013-02-17 18:52:00,56.0,41.0,29.93,North,10,0.0,0.0,56,0.00,,,0.00,,2013-02-18 02:52:00,
2013-02-17 19:01:00,54.0,41.0,29.94,North,10,0.0,0.0,61,0.00,,,0.00,,2013-02-18 03:01:00,
2013-02-17 19:11:00,54.0,41.0,29.94,North,10,0.0,0.0,61,0.00,,,0.00,,2013-02-18 03:11:00,
2013-02-17 19:21:00,51.0,40.0,29.94,North,10,0.0,0.0,65,0.00,,,0.00,,2013-02-18 03:21:00,
2013-02-17 19:31:00,51.0,40.0,29.94,North,10,0.0,0.0,67,0.00,,,0.00,,2013-02-18 03:31:00,
2013-02-17 19:41:00,51.0,40.0,29.94,North,10,0.0,0.0,67,0.00,,,0.00,,2013-02-18 03:41:00,
2013-02-17 19:52:00,50.0,40.0,29.94,North,10,0.0,0.0,68,0.00,,,0.00,,2013-02-18 03:52:00,
2013-02-17 20:01:00,50.0,41.0,29.95,North,10,0.0,0.0,70,0.00,,,0.00,,2013-02-18 04:01:00,
2013-02-17 20:11:00,50.0,41.0,29.95,North,10,0.0,0.0,70,0.00,,,0.00,,2013-02-18 04:11:00,
2013-02-17 20:21:00,50.0,41.0,29.95,North,10,0.0,0.0,70,0.00,,,0.00,,2013-02-18 04:21:00,
2013-02-17 20:32:00,49.0,40.0,29.95,North,10,0.0,0.0,71,0.00,,,0.00,,2013-02-18 04:32:00,
2013-02-17 20:41:00,49.0,40.0,29.95,North,10,0.0,0.0,71,0.00,,,0.00,,2013-02-18 04:41:00,
2013-02-17 20:51:00,47.0,38.0,29.96,WSW,238,0.0,2.0,72,0.00,,,0.00,,2013-02-18 04:51:00,
2013-02-17 21:01:00,47.0,39.0,29.95,WSW,238,0.0,0.0,73,0.00,,,0.00,,2013-02-18 05:01:00,
2013-02-17 21:11:00,47.0,39.0,29.95,WSW,238,0.0,0.0,73,0.00,,,0.00,,2013-02-18 05:11:00,
2013-02-17 21:21:00,47.0,38.0,29.96,WSW,238,0.0,0.0,72,0.00,,,0.00,,2013-02-18 05:21:00,
2013-02-17 21:31:00,46.0,37.0,29.96,WSW,238,0.0,1.0,72,0.00,,,0.00,,2013-02-18 05:31:00,
2013-02-17 21:41:00,46.0,37.0,29.96,WSW,238,0.0,1.0,72,0.00,,,0.00,,2013-02-18 05:41:00,
2013-02-17 21:51:00,45.0,37.0,29.96,WSW,238,0.0,1.0,74,0.00,,,0.00,,2013-02-18 05:51:00,
2013-02-17 22:02:00,45.0,38.0,29.96,WSW,238,0.0,0.0,75,0.00,,,0.00,,2013-02-18 06:02:00,
2013-02-17 22:11:00,45.0,38.0,29.96,WSW,238,0.0,0.0,75,0.00,,,0.00,,2013-02-18 06:11:00,
2013-02-17 22:21:00,45.0,39.0,29.97,WSW,238,0.0,1.0,79,0.00,,,0.00,,2013-02-18 06:21:00,
2013-02-17 22:31:00,45.0,39.0,29.97,WSW,238,0.0,0.0,79,0.00,,,0.00,,2013-02-18 06:31:00,
2013-02-17 22:41:00,44.0,38.0,29.97,WSW,238,0.0,1.0,80,0.00,,,0.00,,2013-02-18 06:41:00,
2013-02-17 22:51:00,44.0,38.0,29.97,WSW,238,0.0,1.0,80,0.00,,,0.00,,2013-02-18 06:51:00,
2013-02-17 23:01:00,43.0,38.0,29.97,WSW,238,0.0,0.0,81,0.00,,,0.00,,2013-02-18 07:01:00,
2013-02-17 23:11:00,43.0,38.0,29.97,WSW,238,0.0,0.0,81,0.00,,,0.00,,2013-02-18 07:11:00,
2013-02-17 23:21:00,42.0,37.0,29.97,WSW,238,0.0,0.0,82,0.00,,,0.00,,2013-02-18 07:21:00,
2013-02-17 23:31:00,41.0,37.0,29.97,WSW,238,0.0,1.0,84,0.00,,,0.00,,2013-02-18 07:31:00,
2013-02-17 23:42:00,41.0,37.0,29.97,WSW,238,0.0,1.0,84,0.00,,,0.00,,2013-02-18 07:42:00,
2013-02-17 23:51:00,41.0,37.0,29.97,WSW,238,0.0,1.0,84,0.00,,,0.00,,2013-02-18 07:51:00,